Date,TemperatureHighF,TemperatureAvgF,TemperatureLowF,DewpointHighF,DewpointAvgF,DewpointLowF,HumidityHigh,HumidityAvg,HumidityLow,PressureMaxIn,PressureMinIn,WindSpeedMaxMPH,WindSpeedAvgMPH,GustSpeedMaxMPH,PrecipitationSumIn
2013-5-1,84.0,70.6,58.0,64.0,57.3,50.0,85,64,40,29.92,29.72,6,2,0,0.00
2013-5-2,63.0,48.7,34.0,58.0,45.3,32.0,94,89,79,30.15,29.89,9,6,0,0.00
2013-5-3,47.0,38.2,33.0,38.0,33.6,31.0,96,84,55,30.14,29.86,11,7,0,0.00
2013-5-4,44.0,39.0,34.0,39.0,36.1,33.0,96,89,78,29.92,29.75,8,3,0,0.00
2013-5-5,59.0,47.6,35.0,49.0,42.3,34.0,97,83,61,30.00,29.91,8,4,0,0.00
2013-5-6,64.0,54.0,49.0,54.0,49.8,47.0,96,86,68,29.98,29.89,5,3,0,0.00
2013-5-7,77.0,61.5,44.0,57.0,50.0,43.0,98,70,39,29.97,29.85,4,1,0,0.00
2013-5-8,80.0,65.9,52.0,61.0,55.0,49.0,92,70,44,29.92,29.76,7,2,0,0.00
2013-5-9,77.0,64.6,58.0,63.0,59.2,56.0,97,84,58,29.84,29.73,8,3,0,0.00
2013-5-10,67.0,60.7,55.0,62.0,55.4,-99.9,98,88,71,29.93,29.75,7,3,0,0.00
2013-5-11,73.0,59.4,48.0,56.0,47.5,-99.9,97,70,33,30.09,29.92,8,3,0,0.00
2013-5-12,67.0,55.7,42.0,49.0,38.7,33.0,79,55,31,30.16,30.02,5,1,0,0.00
2013-5-13,81.0,64.8,47.0,59.0,50.3,44.0,89,63,39,30.05,29.91,7,2,0,0.00
2013-5-14,87.0,73.4,61.0,60.0,54.4,50.0,74,54,31,29.92,29.80,8,3,0,0.00
2013-5-15,74.0,67.6,62.0,66.0,60.0,51.0,95,77,56,29.84,29.72,7,2,0,0.00
2013-5-16,69.0,59.9,61.0,64.0,41.4,-99.9,96,91,82,29.74,29.68,3,1,0,0.00
2013-5-17,82.0,69.0,57.0,66.0,57.8,-99.9,98,79,53,29.79,29.72,3,1,0,0.00
2013-5-18,84.0,74.9,64.0,74.0,68.9,62.0,96,82,70,29.78,29.63,6,2,0,0.00
2013-5-19,88.0,78.5,72.0,70.0,66.6,63.0,91,69,44,29.69,29.48,9,5,0,0.00
2013-5-20,78.0,70.4,62.0,70.0,65.5,59.0,95,85,73,29.66,29.53,14,3,0,0.00
2013-5-21,65.0,61.3,58.0,61.0,59.1,56.0,97,92,85,29.78,29.44,11,4,0,0.00
2013-5-22,74.0,64.1,53.0,61.0,56.9,52.0,98,80,56,29.81,29.66,10,3,0,0.00
2013-5-23,74.0,65.0,55.0,62.0,58.2,54.0,97,80,61,30.01,29.81,5,2,0,0.00
2013-5-24,78.0,66.6,57.0,63.0,57.2,53.0,89,73,57,30.14,30.01,6,4,0,0.00
2013-5-25,83.0,70.8,59.0,67.0,59.6,51.0,81,68,57,30.09,29.91,6,3,0,0.00
2013-5-26,82.0,73.4,64.0,68.0,64.5,61.0,93,75,56,29.98,29.83,8,3,0,0.00
2013-5-27,83.0,74.6,67.0,69.0,65.8,60.0,93,75,57,29.85,29.65,9,5,0,0.00
2013-5-28,83.0,75.6,72.0,67.0,65.5,63.0,84,72,57,29.72,29.61,10,6,0,0.00
2013-5-29,79.0,74.8,69.0,68.0,65.5,64.0,85,73,64,29.73,29.59,9,5,0,0.00
2013-5-30,78.0,70.5,62.0,69.0,65.2,60.0,95,84,70,29.73,29.56,11,5,0,0.00
2013-5-31,85.0,75.0,62.0,73.0,69.2,60.0,97,83,65,29.65,29.49,10,4,0,0.00